Terminal Aerodrome Forecast
Issued by NWS

Home | Current Version | Previous Version | Text Only | Print | Product List | Glossary On
Versions: 1 2 3 4 5 6 7 8 9 10 11 12 13
000
FTUS44 KLZK 311700
TAFHOT
TAF
KHOT 311720Z 3118/0118 09007KT P6SM VCSH OVC025
      TEMPO 3118/3122 2SM -RA BR BKN020
     FM010300 09003KT P6SM VCSH OVC040
      TEMPO 0108/0112 1SM BR OVC025=

USA.gov is the U.S. government's official web portal to all federal, state and local government web resources and services.